createdAt,value
2018-02-25T00:00:41.639Z,-6.31
2018-02-25T00:01:47.539Z,-6.20
2018-02-25T00:02:53.433Z,-6.05
2018-02-25T00:03:59.349Z,-6.13
2018-02-25T00:05:05.217Z,-6.19
2018-02-25T00:06:11.129Z,-6.21
2018-02-25T00:07:17.012Z,-6.31
2018-02-25T00:08:22.946Z,-6.34
2018-02-25T00:09:28.804Z,-6.25
2018-02-25T00:10:34.710Z,-6.27
2018-02-25T00:11:40.618Z,-6.27
2018-02-25T00:12:46.504Z,-6.21
2018-02-25T00:13:52.416Z,-6.21
2018-02-25T00:14:58.296Z,-6.20
2018-02-25T00:16:04.182Z,-6.16
2018-02-25T00:17:10.085Z,-6.18
2018-02-25T00:18:16.001Z,-6.21
2018-02-25T00:19:21.868Z,-6.36
2018-02-25T00:20:27.760Z,-6.40
2018-02-25T00:21:33.666Z,-6.43
2018-02-25T00:22:39.549Z,-6.32
2018-02-25T00:23:45.967Z,-6.21
2018-02-25T00:24:51.355Z,-6.08
2018-02-25T00:25:57.240Z,-6.17
2018-02-25T00:27:03.129Z,-6.24
2018-02-25T00:28:09.031Z,-6.35
2018-02-25T00:29:14.940Z,-6.43
2018-02-25T00:30:21.304Z,-6.44
2018-02-25T00:31:26.717Z,-6.42
2018-02-25T00:32:32.612Z,-6.38
2018-02-25T00:33:38.519Z,-6.46
2018-02-25T00:34:44.398Z,-6.48
2018-02-25T00:35:50.282Z,-6.49
2018-02-25T00:36:56.173Z,-6.37
2018-02-25T00:38:02.071Z,-6.30
2018-02-25T00:39:07.982Z,-6.32
2018-02-25T00:40:13.835Z,-6.35
2018-02-25T00:41:19.736Z,-6.40
2018-02-25T00:42:25.628Z,-6.47
2018-02-25T00:43:31.732Z,-6.44
2018-02-25T00:44:37.714Z,-6.37
2018-02-25T00:45:43.289Z,-6.34
2018-02-25T00:46:49.190Z,-6.29
2018-02-25T00:47:55.073Z,-6.22
2018-02-25T00:49:00.986Z,-6.19
2018-02-25T00:50:06.934Z,-6.24
2018-02-25T00:51:12.750Z,-6.28
2018-02-25T00:52:18.628Z,-6.35
2018-02-25T00:53:25.035Z,-6.40
2018-02-25T00:54:30.409Z,-6.57
2018-02-25T00:55:36.794Z,-6.61
2018-02-25T00:56:42.689Z,-6.50
2018-02-25T00:57:48.078Z,-6.52
2018-02-25T00:58:53.994Z,-6.60
2018-02-25T00:59:59.862Z,-6.66
2018-02-25T01:01:05.744Z,-6.60
2018-02-25T01:02:11.635Z,-6.57
2018-02-25T01:03:17.512Z,-6.59
2018-02-25T01:04:23.443Z,-6.71
2018-02-25T01:05:29.297Z,-6.82
2018-02-25T01:06:35.177Z,-6.79
2018-02-25T01:07:41.084Z,-6.75
2018-02-25T01:08:46.969Z,-6.78
2018-02-25T01:09:52.941Z,-6.93
2018-02-25T01:10:58.723Z,-6.90
2018-02-25T01:12:04.605Z,-6.87
2018-02-25T01:13:10.487Z,-6.73
2018-02-25T01:14:16.394Z,-6.69
2018-02-25T01:15:22.265Z,-6.78
2018-02-25T01:16:28.133Z,-6.77
2018-02-25T01:17:34.032Z,-6.79
2018-02-25T01:18:39.923Z,-6.80
2018-02-25T01:19:45.787Z,-6.84
2018-02-25T01:20:51.662Z,-6.81
2018-02-25T01:21:57.547Z,-6.87
2018-02-25T01:23:03.436Z,-6.83
2018-02-25T01:24:09.328Z,-6.85
2018-02-25T01:25:15.181Z,-6.81
2018-02-25T01:26:21.063Z,-6.80
2018-02-25T01:27:26.944Z,-6.81
2018-02-25T01:28:32.845Z,-6.90
2018-02-25T01:29:39.191Z,-6.99
2018-02-25T01:30:44.579Z,-7.04
2018-02-25T01:31:50.477Z,-7.13
2018-02-25T01:32:56.337Z,-7.10
2018-02-25T01:34:02.242Z,-7.10
2018-02-25T01:35:08.094Z,-7.02
2018-02-25T01:36:13.973Z,-7.03
2018-02-25T01:37:19.842Z,-6.87
2018-02-25T01:38:25.736Z,-6.80
2018-02-25T01:39:31.620Z,-6.80
2018-02-25T01:40:38.462Z,-6.83
2018-02-25T01:41:43.352Z,-6.82
2018-02-25T01:42:49.227Z,-6.88
2018-02-25T01:43:55.611Z,-6.92
2018-02-25T01:45:00.986Z,-6.97
2018-02-25T01:46:06.929Z,-7.00
2018-02-25T01:47:12.735Z,-6.96
2018-02-25T01:48:18.612Z,-7.00
2018-02-25T01:49:24.501Z,-7.06
2018-02-25T01:50:30.342Z,-7.11
2018-02-25T01:51:36.220Z,-6.99
2018-02-25T01:52:42.096Z,-6.88
2018-02-25T01:53:47.992Z,-6.94
2018-02-25T01:54:53.844Z,-7.04
2018-02-25T01:55:59.721Z,-7.07
2018-02-25T01:57:05.600Z,-7.07
2018-02-25T01:58:11.962Z,-7.14
2018-02-25T01:59:17.345Z,-7.20
2018-02-25T02:00:23.204Z,-7.20
2018-02-25T02:01:29.068Z,-7.25
2018-02-25T02:02:34.939Z,-7.38
2018-02-25T02:03:40.840Z,-7.42
2018-02-25T02:04:46.717Z,-7.42
2018-02-25T02:05:52.567Z,-7.38
2018-02-25T02:06:58.438Z,-7.22
2018-02-25T02:08:04.310Z,-7.30
2018-02-25T02:09:10.193Z,-7.40
2018-02-25T02:10:16.045Z,-7.48
2018-02-25T02:11:21.915Z,-7.46
2018-02-25T02:12:27.794Z,-7.43
2018-02-25T02:13:33.665Z,-7.42
2018-02-25T02:14:39.548Z,-7.40
2018-02-25T02:15:45.398Z,-7.41
2018-02-25T02:16:51.254Z,-7.39
2018-02-25T02:17:57.627Z,-7.40
2018-02-25T02:19:02.999Z,-7.36
2018-02-25T02:20:08.841Z,-7.37
2018-02-25T02:21:14.720Z,-7.36
2018-02-25T02:22:20.569Z,-7.40
2018-02-25T02:23:26.440Z,-7.44
2018-02-25T02:24:32.317Z,-7.37
2018-02-25T02:25:38.162Z,-7.34
2018-02-25T02:26:44.023Z,-7.43
2018-02-25T02:27:49.891Z,-7.55
2018-02-25T02:28:55.784Z,-7.59
2018-02-25T02:30:01.616Z,-7.58
2018-02-25T02:31:07.491Z,-7.56
2018-02-25T02:32:13.336Z,-7.59
2018-02-25T02:33:19.208Z,-7.60
2018-02-25T02:34:25.077Z,-7.65
2018-02-25T02:35:30.919Z,-7.73
2018-02-25T02:36:36.779Z,-7.75
2018-02-25T02:37:42.628Z,-7.68
2018-02-25T02:38:48.507Z,-7.62
2018-02-25T02:39:54.375Z,-7.64
2018-02-25T02:41:00.410Z,-7.55
2018-02-25T02:42:06.060Z,-7.49
2018-02-25T02:43:11.930Z,-7.55
2018-02-25T02:44:17.812Z,-7.61
2018-02-25T02:45:23.663Z,-7.57
2018-02-25T02:46:29.502Z,-7.60
2018-02-25T02:47:35.351Z,-7.68
2018-02-25T02:48:41.211Z,-7.71
2018-02-25T02:49:47.108Z,-7.61
2018-02-25T02:50:52.944Z,-7.50
2018-02-25T02:51:58.796Z,-7.45
2018-02-25T02:53:05.151Z,-7.44
2018-02-25T02:54:10.527Z,-7.43
2018-02-25T02:55:16.357Z,-7.46
2018-02-25T02:56:22.220Z,-7.59
2018-02-25T02:57:28.081Z,-7.57
2018-02-25T02:58:33.933Z,-7.61
2018-02-25T02:59:39.815Z,-7.58
2018-02-25T03:00:46.156Z,-7.64
2018-02-25T03:01:51.530Z,-7.59
2018-02-25T03:02:57.365Z,-7.64
2018-02-25T03:04:03.234Z,-7.71
2018-02-25T03:05:09.065Z,-7.80
2018-02-25T03:06:14.921Z,-7.79
2018-02-25T03:07:20.786Z,-7.84
2018-02-25T03:08:26.630Z,-7.76
2018-02-25T03:09:32.507Z,-7.79
2018-02-25T03:10:38.344Z,-7.79
2018-02-25T03:11:44.205Z,-7.81
2018-02-25T03:12:50.046Z,-7.81
2018-02-25T03:13:55.926Z,-7.82
2018-02-25T03:15:01.744Z,-7.79
2018-02-25T03:16:07.609Z,-7.76
2018-02-25T03:17:13.443Z,-7.71
2018-02-25T03:18:19.299Z,-7.75
2018-02-25T03:19:25.668Z,-7.72
2018-02-25T03:20:31.015Z,-7.73
2018-02-25T03:21:36.927Z,-7.79
2018-02-25T03:22:42.703Z,-7.87
2018-02-25T03:23:49.059Z,-7.92
2018-02-25T03:24:54.433Z,-7.89
2018-02-25T03:26:00.268Z,-7.95
2018-02-25T03:27:06.120Z,-7.94
2018-02-25T03:28:11.959Z,-7.96
2018-02-25T03:29:18.340Z,-7.99
2018-02-25T03:30:24.172Z,-7.99
2018-02-25T03:31:29.523Z,-7.93
2018-02-25T03:32:35.364Z,-7.97
2018-02-25T03:33:41.738Z,-7.98
2018-02-25T03:34:47.089Z,-8.05
2018-02-25T03:35:52.954Z,-8.09
2018-02-25T03:36:58.773Z,-7.98
2018-02-25T03:38:04.618Z,-7.86
2018-02-25T03:39:10.498Z,-7.88
2018-02-25T03:40:16.314Z,-7.89
2018-02-25T03:41:22.658Z,-7.83
2018-02-25T03:42:28.027Z,-7.82
2018-02-25T03:43:33.871Z,-7.84
2018-02-25T03:44:39.745Z,-7.90
2018-02-25T03:45:45.565Z,-7.97
2018-02-25T03:46:51.410Z,-8.03
2018-02-25T03:47:57.761Z,-8.03
2018-02-25T03:49:03.125Z,-7.99
2018-02-25T03:50:08.952Z,-8.02
2018-02-25T03:51:14.793Z,-7.99
2018-02-25T03:52:21.133Z,-7.97
2018-02-25T03:53:26.482Z,-7.94
2018-02-25T03:54:32.358Z,-7.93
2018-02-25T03:55:38.187Z,-7.90
2018-02-25T03:56:44.029Z,-7.93
2018-02-25T03:57:49.873Z,-7.92
2018-02-25T03:58:55.717Z,-7.95
2018-02-25T04:00:01.577Z,-7.96
2018-02-25T04:01:07.409Z,-7.98
2018-02-25T04:02:13.250Z,-8.01
2018-02-25T04:03:19.101Z,-7.95
2018-02-25T04:04:24.962Z,-8.06
2018-02-25T04:05:30.774Z,-8.15
2018-02-25T04:06:36.625Z,-8.23
2018-02-25T04:07:42.480Z,-8.27
2018-02-25T04:08:48.305Z,-8.29
2018-02-25T04:09:54.167Z,-8.20
2018-02-25T04:10:59.994Z,-8.21
2018-02-25T04:12:05.835Z,-8.23
2018-02-25T04:13:11.670Z,-8.13
2018-02-25T04:14:17.542Z,-8.23
2018-02-25T04:15:23.371Z,-8.35
2018-02-25T04:16:29.196Z,-8.38
2018-02-25T04:17:35.546Z,-8.39
2018-02-25T04:18:40.956Z,-8.47
2018-02-25T04:19:46.754Z,-8.52
2018-02-25T04:20:53.047Z,-8.55
2018-02-25T04:21:59.394Z,-8.54
2018-02-25T04:23:04.246Z,-8.48
2018-02-25T04:24:10.097Z,-8.48
2018-02-25T04:25:15.918Z,-8.50
2018-02-25T04:26:21.755Z,-8.55
2018-02-25T04:27:27.594Z,-8.54
2018-02-25T04:28:33.429Z,-8.57
2018-02-25T04:29:39.282Z,-8.63
2018-02-25T04:30:45.104Z,-8.72
2018-02-25T04:31:50.926Z,-8.65
2018-02-25T04:32:56.771Z,-8.62
2018-02-25T04:34:02.625Z,-8.52
2018-02-25T04:35:08.472Z,-8.50
2018-02-25T04:36:14.286Z,-8.54
2018-02-25T04:37:20.099Z,-8.62
2018-02-25T04:38:25.932Z,-8.66
2018-02-25T04:39:31.980Z,-8.70
2018-02-25T04:40:37.611Z,-8.76
2018-02-25T04:41:43.432Z,-8.70
2018-02-25T04:42:49.270Z,-8.63
2018-02-25T04:43:55.114Z,-8.62
2018-02-25T04:45:00.963Z,-8.57
2018-02-25T04:46:06.769Z,-8.58
2018-02-25T04:47:12.612Z,-8.61
2018-02-25T04:48:18.439Z,-8.63
2018-02-25T04:49:24.304Z,-8.62
2018-02-25T04:50:30.113Z,-8.64
2018-02-25T04:51:35.941Z,-8.71
2018-02-25T04:52:41.768Z,-8.79
2018-02-25T04:53:47.606Z,-8.80
2018-02-25T04:54:53.460Z,-8.84
2018-02-25T04:55:59.269Z,-8.85
2018-02-25T04:57:05.096Z,-8.84
2018-02-25T04:58:10.927Z,-8.85
2018-02-25T04:59:16.794Z,-8.84
2018-02-25T05:00:22.606Z,-8.80
2018-02-25T05:01:28.941Z,-8.70
2018-02-25T05:02:34.242Z,-8.70
2018-02-25T05:03:40.081Z,-8.75
2018-02-25T05:04:45.926Z,-8.69
2018-02-25T05:05:51.732Z,-8.65
2018-02-25T05:06:58.063Z,-8.67
2018-02-25T05:08:03.391Z,-8.71
2018-02-25T05:09:09.241Z,-8.70
2018-02-25T05:10:15.581Z,-8.68
2018-02-25T05:11:20.906Z,-8.65
2018-02-25T05:12:26.721Z,-8.66
2018-02-25T05:13:33.045Z,-8.68
2018-02-25T05:14:38.404Z,-8.67
2018-02-25T05:15:44.219Z,-8.74
2018-02-25T05:16:50.532Z,-8.82
2018-02-25T05:17:55.874Z,-8.84
2018-02-25T05:19:01.705Z,-8.87
2018-02-25T05:20:07.553Z,-8.83
2018-02-25T05:21:13.361Z,-8.79
2018-02-25T05:22:19.190Z,-8.75
2018-02-25T05:23:25.020Z,-8.79
2018-02-25T05:24:30.949Z,-8.85
2018-02-25T05:25:36.673Z,-8.90
2018-02-25T05:26:42.999Z,-8.96
2018-02-25T05:27:48.340Z,-8.99
2018-02-25T05:28:54.643Z,-8.97
2018-02-25T05:30:00.002Z,-8.96
2018-02-25T05:31:05.799Z,-8.96
2018-02-25T05:32:12.129Z,-8.95
2018-02-25T05:33:17.466Z,-8.94
2018-02-25T05:34:23.270Z,-8.98
2018-02-25T05:35:29.139Z,-8.99
2018-02-25T05:36:34.923Z,-8.97
2018-02-25T05:37:40.740Z,-8.93
2018-02-25T05:38:46.568Z,-8.96
2018-02-25T05:39:52.422Z,-8.99
2018-02-25T05:40:58.228Z,-9.00
2018-02-25T05:42:04.074Z,-8.93
2018-02-25T05:43:09.884Z,-8.93
2018-02-25T05:44:15.688Z,-8.90
2018-02-25T05:45:21.529Z,-8.89
2018-02-25T05:46:27.343Z,-8.88
2018-02-25T05:47:33.154Z,-8.87
2018-02-25T05:48:38.976Z,-8.92
2018-02-25T05:49:44.825Z,-8.99
2018-02-25T05:50:50.625Z,-9.01
2018-02-25T05:51:56.455Z,-9.04
2018-02-25T05:53:02.273Z,-9.02
2018-02-25T05:54:08.112Z,-8.93
2018-02-25T05:55:13.933Z,-8.89
2018-02-25T05:56:19.741Z,-8.90
2018-02-25T05:57:26.558Z,-8.92
2018-02-25T05:58:31.375Z,-8.98
2018-02-25T05:59:37.226Z,-9.08
2018-02-25T06:00:43.040Z,-9.13
2018-02-25T06:01:48.934Z,-9.17
2018-02-25T06:02:54.666Z,-9.23
2018-02-25T06:04:00.979Z,-9.15
2018-02-25T06:05:06.324Z,-9.09
2018-02-25T06:06:12.126Z,-9.12
2018-02-25T06:07:17.947Z,-9.06
2018-02-25T06:08:24.258Z,-9.01
2018-02-25T06:09:29.590Z,-9.01
2018-02-25T06:10:35.429Z,-9.07
2018-02-25T06:11:41.245Z,-9.02
2018-02-25T06:12:47.081Z,-9.00
2018-02-25T06:13:52.941Z,-8.96
2018-02-25T06:14:58.720Z,-8.94
2018-02-25T06:16:04.533Z,-8.84
2018-02-25T06:17:10.340Z,-8.84
2018-02-25T06:18:16.154Z,-8.76
2018-02-25T06:19:21.982Z,-8.70
2018-02-25T06:20:28.328Z,-8.71
2018-02-25T06:21:33.618Z,-8.73
2018-02-25T06:22:39.456Z,-8.70
2018-02-25T06:23:45.272Z,-8.67
2018-02-25T06:24:51.110Z,-8.68
2018-02-25T06:25:57.407Z,-8.63
2018-02-25T06:27:02.751Z,-8.63
2018-02-25T06:28:08.569Z,-8.66
2018-02-25T06:29:14.390Z,-8.64
2018-02-25T06:30:20.253Z,-8.67
2018-02-25T06:31:26.052Z,-8.65
2018-02-25T06:32:31.877Z,-8.68
2018-02-25T06:33:37.712Z,-8.66
2018-02-25T06:34:43.550Z,-8.68
2018-02-25T06:35:49.354Z,-8.66
2018-02-25T06:36:55.192Z,-8.71
2018-02-25T06:38:01.019Z,-8.74
2018-02-25T06:39:07.342Z,-8.79
2018-02-25T06:40:12.701Z,-8.82
2018-02-25T06:41:18.496Z,-8.80
2018-02-25T06:42:24.941Z,-8.80
2018-02-25T06:43:30.163Z,-8.82
2018-02-25T06:44:35.990Z,-8.84
2018-02-25T06:45:41.831Z,-8.85
2018-02-25T06:46:47.647Z,-8.80
2018-02-25T06:47:53.535Z,-8.80
2018-02-25T06:48:59.313Z,-8.75
2018-02-25T06:50:05.156Z,-8.67
2018-02-25T06:51:10.975Z,-8.59
2018-02-25T06:52:16.815Z,-8.56
2018-02-25T06:53:23.117Z,-8.45
2018-02-25T06:54:28.459Z,-8.42
2018-02-25T06:55:34.332Z,-8.42
2018-02-25T06:56:40.135Z,-8.42
2018-02-25T06:57:45.954Z,-8.44
2018-02-25T06:58:52.289Z,-8.38
2018-02-25T06:59:57.659Z,-8.31
2018-02-25T07:01:03.458Z,-8.32
2018-02-25T07:02:09.309Z,-8.39
2018-02-25T07:03:15.145Z,-8.41
2018-02-25T07:04:20.980Z,-8.39
2018-02-25T07:05:28.319Z,-8.34
2018-02-25T07:06:32.654Z,-8.28
2018-02-25T07:07:38.482Z,-8.28
2018-02-25T07:08:44.315Z,-8.25
2018-02-25T07:09:50.190Z,-8.26
2018-02-25T07:10:55.994Z,-8.24
2018-02-25T07:12:01.842Z,-8.21
2018-02-25T07:13:07.699Z,-8.10
2018-02-25T07:14:13.532Z,-8.04
2018-02-25T07:15:19.578Z,-8.01
2018-02-25T07:16:25.210Z,-7.92
2018-02-25T07:17:31.547Z,-7.88
2018-02-25T07:18:37.404Z,-7.88
2018-02-25T07:19:42.755Z,-7.82
2018-02-25T07:20:49.109Z,-7.82
2018-02-25T07:21:54.449Z,-7.80
2018-02-25T07:23:00.297Z,-7.76
2018-02-25T07:24:06.128Z,-7.70
2018-02-25T07:25:12.508Z,-7.68
2018-02-25T07:26:18.334Z,-7.69
2018-02-25T07:27:23.683Z,-7.69
2018-02-25T07:28:29.547Z,-7.64
2018-02-25T07:29:35.897Z,-7.55
2018-02-25T07:30:41.271Z,-7.51
2018-02-25T07:31:47.118Z,-7.44
2018-02-25T07:32:52.956Z,-7.44
2018-02-25T07:33:58.810Z,-7.47
2018-02-25T07:35:04.696Z,-7.44
2018-02-25T07:36:10.534Z,-7.38
2018-02-25T07:37:16.382Z,-7.41
2018-02-25T07:38:22.746Z,-7.42
2018-02-25T07:39:28.112Z,-7.40
2018-02-25T07:40:34.480Z,-7.39
2018-02-25T07:41:39.840Z,-7.40
2018-02-25T07:42:45.689Z,-7.35
2018-02-25T07:43:51.557Z,-7.30
2018-02-25T07:44:57.441Z,-7.24
2018-02-25T07:46:03.784Z,-7.21
2018-02-25T07:47:09.161Z,-7.20
2018-02-25T07:48:15.016Z,-7.18
2018-02-25T07:49:20.893Z,-7.13
2018-02-25T07:50:26.771Z,-7.08
2018-02-25T07:51:32.618Z,-7.06
2018-02-25T07:52:38.475Z,-6.99
2018-02-25T07:53:44.352Z,-6.98
2018-02-25T07:54:50.216Z,-6.96
2018-02-25T07:55:56.137Z,-6.99
2018-02-25T07:57:01.970Z,-7.04
2018-02-25T07:58:08.344Z,-7.04
2018-02-25T07:59:13.712Z,-7.04
2018-02-25T08:00:19.601Z,-6.98
2018-02-25T08:01:25.464Z,-6.96
2018-02-25T08:02:31.331Z,-6.96
2018-02-25T08:03:37.207Z,-6.98
2018-02-25T08:04:43.565Z,-6.98
2018-02-25T08:05:48.982Z,-6.96
2018-02-25T08:06:54.924Z,-6.96
2018-02-25T08:08:01.193Z,-6.97
2018-02-25T08:09:06.586Z,-6.94
2018-02-25T08:10:12.483Z,-6.92
2018-02-25T08:11:18.344Z,-6.87
2018-02-25T08:12:24.226Z,-6.84
2018-02-25T08:13:30.095Z,-6.83
2018-02-25T08:14:36.489Z,-6.80
2018-02-25T08:15:41.892Z,-6.75
2018-02-25T08:16:47.743Z,-6.73
2018-02-25T08:17:53.620Z,-6.74
2018-02-25T08:18:59.510Z,-6.75
2018-02-25T08:20:05.433Z,-6.72
2018-02-25T08:21:11.277Z,-6.70
2018-02-25T08:22:17.153Z,-6.72
2018-02-25T08:23:23.039Z,-6.67
2018-02-25T08:24:28.923Z,-6.62
2018-02-25T08:25:34.825Z,-6.63
2018-02-25T08:26:40.697Z,-6.65
2018-02-25T08:27:46.575Z,-6.62
2018-02-25T08:28:52.954Z,-6.55
2018-02-25T08:29:58.348Z,-6.50
2018-02-25T08:31:04.254Z,-6.51
2018-02-25T08:32:11.126Z,-6.54
2018-02-25T08:33:16.005Z,-6.49
2018-02-25T08:34:21.911Z,-6.39
2018-02-25T08:35:27.846Z,-6.36
2018-02-25T08:36:33.684Z,-6.28
2018-02-25T08:37:39.572Z,-6.25
2018-02-25T08:38:45.472Z,-6.26
2018-02-25T08:39:51.376Z,-6.22
2018-02-25T08:40:57.762Z,-6.20
2018-02-25T08:42:03.641Z,-6.17
2018-02-25T08:43:09.025Z,-6.15
2018-02-25T08:44:14.928Z,-6.11
2018-02-25T08:45:20.852Z,-6.06
2018-02-25T08:46:26.712Z,-6.07
2018-02-25T08:47:32.682Z,-6.06
2018-02-25T08:48:38.507Z,-6.03
2018-02-25T08:49:44.404Z,-6.00
2018-02-25T08:50:50.321Z,-5.91
2018-02-25T08:51:56.391Z,-5.90
2018-02-25T08:53:02.595Z,-5.88
2018-02-25T08:54:08.002Z,-5.90
2018-02-25T08:55:13.925Z,-5.87
2018-02-25T08:56:19.820Z,-5.90
2018-02-25T08:57:25.742Z,-5.91
2018-02-25T08:58:31.648Z,-5.86
2018-02-25T08:59:37.572Z,-5.88
2018-02-25T09:00:43.547Z,-5.93
2018-02-25T09:01:49.420Z,-5.90
2018-02-25T09:02:55.327Z,-5.88
2018-02-25T09:04:01.733Z,-5.88
2018-02-25T09:05:07.180Z,-5.89
2018-02-25T09:06:13.125Z,-5.86
2018-02-25T09:07:19.013Z,-5.78
2018-02-25T09:08:24.947Z,-5.72
2018-02-25T09:09:31.373Z,-5.67
2018-02-25T09:10:36.803Z,-5.64
2018-02-25T09:11:42.716Z,-5.66
2018-02-25T09:12:48.638Z,-5.62
2018-02-25T09:13:54.572Z,-5.57
2018-02-25T09:15:00.498Z,-5.57
2018-02-25T09:16:06.455Z,-5.56
2018-02-25T09:17:12.388Z,-5.55
2018-02-25T09:18:18.292Z,-5.48
2018-02-25T09:19:24.217Z,-5.38
2018-02-25T09:20:30.166Z,-5.40
2018-02-25T09:21:36.581Z,-5.38
2018-02-25T09:22:42.028Z,-5.36
2018-02-25T09:23:47.954Z,-5.34
2018-02-25T09:24:53.889Z,-5.25
2018-02-25T09:25:59.861Z,-5.24
2018-02-25T09:27:05.760Z,-5.27
2018-02-25T09:28:11.705Z,-5.27
2018-02-25T09:29:17.635Z,-5.22
2018-02-25T09:30:23.606Z,-5.21
2018-02-25T09:31:30.016Z,-5.21
2018-02-25T09:32:35.461Z,-5.20
2018-02-25T09:33:41.419Z,-5.18
2018-02-25T09:34:47.865Z,-5.14
2018-02-25T09:35:53.832Z,-5.08
2018-02-25T09:36:59.221Z,-5.04
2018-02-25T09:38:05.173Z,-5.02
2018-02-25T09:39:11.120Z,-4.92
2018-02-25T09:40:17.055Z,-4.90
2018-02-25T09:41:23.044Z,-4.90
2018-02-25T09:42:28.947Z,-4.91
2018-02-25T09:43:34.898Z,-4.87
2018-02-25T09:44:41.332Z,-4.85
2018-02-25T09:45:47.816Z,-4.81
2018-02-25T09:46:52.740Z,-4.73
2018-02-25T09:47:58.684Z,-4.65
2018-02-25T09:49:04.628Z,-4.62
2018-02-25T09:50:10.588Z,-4.55
2018-02-25T09:51:16.549Z,-4.50
2018-02-25T09:52:22.485Z,-4.50
2018-02-25T09:53:28.431Z,-4.52
2018-02-25T09:54:34.958Z,-4.50
2018-02-25T09:55:40.892Z,-4.47
2018-02-25T09:56:46.270Z,-4.44
2018-02-25T09:57:52.215Z,-4.39
2018-02-25T09:58:58.158Z,-4.33
2018-02-25T10:00:04.404Z,-4.25
2018-02-25T10:01:10.067Z,-4.21
2018-02-25T10:02:15.981Z,-4.21
2018-02-25T10:03:21.927Z,-4.13
2018-02-25T10:04:27.869Z,-4.01
2018-02-25T10:05:33.841Z,-3.95
2018-02-25T10:06:39.771Z,-3.89
2018-02-25T10:07:46.193Z,-3.86
2018-02-25T10:08:52.146Z,-3.87
2018-02-25T10:09:57.610Z,-3.93
2018-02-25T10:11:03.561Z,-3.94
2018-02-25T10:12:09.492Z,-3.90
2018-02-25T10:13:15.432Z,-3.90
2018-02-25T10:14:21.423Z,-3.84
2018-02-25T10:15:27.326Z,-3.89
2018-02-25T10:16:33.290Z,-3.84
2018-02-25T10:17:39.211Z,-3.81
2018-02-25T10:18:45.163Z,-3.79
2018-02-25T10:19:51.113Z,-3.79
2018-02-25T10:20:57.080Z,-3.82
2018-02-25T10:22:03.027Z,-3.77
2018-02-25T10:23:08.967Z,-3.69
2018-02-25T10:24:14.920Z,-3.65
2018-02-25T10:25:20.936Z,-3.65
2018-02-25T10:26:26.841Z,-3.60
2018-02-25T10:27:32.822Z,-3.57
2018-02-25T10:28:38.735Z,-3.55
2018-02-25T10:29:44.676Z,-3.51
2018-02-25T10:30:50.640Z,-3.46
2018-02-25T10:31:56.596Z,-3.39
2018-02-25T10:33:02.534Z,-3.33
2018-02-25T10:34:08.493Z,-3.38
2018-02-25T10:35:14.451Z,-3.42
2018-02-25T10:36:20.456Z,-3.41
2018-02-25T10:37:26.361Z,-3.38
2018-02-25T10:38:32.309Z,-3.38
2018-02-25T10:39:38.281Z,-3.37
2018-02-25T10:40:44.750Z,-3.32
2018-02-25T10:41:50.192Z,-3.27
2018-02-25T10:42:56.142Z,-3.20
2018-02-25T10:44:02.102Z,-3.19
2018-02-25T10:45:08.054Z,-3.19
2018-02-25T10:46:14.042Z,-3.16
2018-02-25T10:47:20.472Z,-3.13
2018-02-25T10:48:25.948Z,-3.12
2018-02-25T10:49:31.901Z,-3.16
2018-02-25T10:50:37.860Z,-3.16
2018-02-25T10:51:43.840Z,-3.15
2018-02-25T10:52:49.785Z,-3.08
2018-02-25T10:53:55.748Z,-3.04
2018-02-25T10:55:01.720Z,-2.97
2018-02-25T10:56:07.700Z,-2.95
2018-02-25T10:57:13.643Z,-2.89
2018-02-25T10:58:19.603Z,-2.89
2018-02-25T10:59:25.586Z,-2.88
2018-02-25T11:00:31.539Z,-2.88
2018-02-25T11:01:37.534Z,-2.86
2018-02-25T11:02:43.482Z,-2.86
2018-02-25T11:03:49.932Z,-2.89
2018-02-25T11:04:55.412Z,-3.01
2018-02-25T11:06:01.400Z,-3.01
2018-02-25T11:07:07.372Z,-3.01
2018-02-25T11:08:13.318Z,-2.92
2018-02-25T11:09:19.297Z,-2.87
2018-02-25T11:10:25.776Z,-2.76
2018-02-25T11:11:31.255Z,-2.66
2018-02-25T11:12:37.210Z,-2.62
2018-02-25T11:13:43.176Z,-2.54
2018-02-25T11:14:49.142Z,-2.51
2018-02-25T11:15:55.120Z,-2.57
2018-02-25T11:17:01.121Z,-2.55
2018-02-25T11:18:07.059Z,-2.56
2018-02-25T11:19:13.036Z,-2.52
2018-02-25T11:20:19.012Z,-2.47
2018-02-25T11:21:25.500Z,-2.49
2018-02-25T11:22:30.966Z,-2.47
2018-02-25T11:23:36.949Z,-2.44
2018-02-25T11:24:42.915Z,-2.40
2018-02-25T11:25:48.911Z,-2.37
2018-02-25T11:26:54.901Z,-2.39
2018-02-25T11:28:01.357Z,-2.55
2018-02-25T11:29:06.922Z,-2.57
2018-02-25T11:30:12.833Z,-2.49
2018-02-25T11:31:18.865Z,-2.36
2018-02-25T11:32:25.287Z,-2.33
2018-02-25T11:33:30.799Z,-2.37
2018-02-25T11:34:36.750Z,-2.31
2018-02-25T11:35:42.745Z,-2.29
2018-02-25T11:36:48.745Z,-2.29
2018-02-25T11:37:55.206Z,-2.28
2018-02-25T11:39:01.187Z,-2.30
2018-02-25T11:40:06.687Z,-2.23
2018-02-25T11:41:12.705Z,-2.15
2018-02-25T11:42:18.722Z,-2.13
2018-02-25T11:43:24.709Z,-2.13
2018-02-25T11:44:30.754Z,-2.17
2018-02-25T11:45:36.805Z,-2.25
2018-02-25T11:46:42.958Z,-2.30
2018-02-25T11:47:48.962Z,-2.30
2018-02-25T11:48:55.071Z,-2.19
2018-02-25T11:50:01.174Z,-2.03
2018-02-25T11:51:07.395Z,-1.98
2018-02-25T11:52:13.470Z,-2.09
2018-02-25T11:53:19.628Z,-2.20
2018-02-25T11:54:25.812Z,-2.30
2018-02-25T11:55:31.990Z,-2.26
2018-02-25T11:56:38.210Z,-2.27
2018-02-25T11:57:44.389Z,-2.22
2018-02-25T11:58:50.611Z,-2.20
2018-02-25T11:59:56.929Z,-2.28
2018-02-25T12:01:03.061Z,-2.25
2018-02-25T12:02:09.333Z,-2.18
2018-02-25T12:03:15.554Z,-2.05
2018-02-25T12:04:21.816Z,-1.99
2018-02-25T12:05:28.580Z,-1.92
2018-02-25T12:06:34.395Z,-1.87
2018-02-25T12:07:40.670Z,-1.77
2018-02-25T12:08:46.920Z,-1.73
2018-02-25T12:09:53.217Z,-1.74
2018-02-25T12:10:59.534Z,-1.75
2018-02-25T12:12:05.863Z,-1.69
2018-02-25T12:13:12.626Z,-1.62
2018-02-25T12:14:18.620Z,-1.67
2018-02-25T12:15:24.748Z,-1.70
2018-02-25T12:16:31.080Z,-1.63
2018-02-25T12:17:37.899Z,-1.61
2018-02-25T12:18:43.721Z,-1.60
2018-02-25T12:19:50.050Z,-1.62
2018-02-25T12:20:56.368Z,-1.66
2018-02-25T12:22:02.691Z,-1.74
2018-02-25T12:23:09.053Z,-1.77
2018-02-25T12:24:15.373Z,-1.73
2018-02-25T12:25:21.720Z,-1.69
2018-02-25T12:26:28.048Z,-1.52
2018-02-25T12:27:34.449Z,-1.52
2018-02-25T12:28:41.273Z,-1.42
2018-02-25T12:29:47.093Z,-1.39
2018-02-25T12:30:53.452Z,-1.44
2018-02-25T12:32:00.298Z,-1.42
2018-02-25T12:33:06.690Z,-1.31
2018-02-25T12:34:12.517Z,-1.26
2018-02-25T12:35:18.885Z,-1.29
2018-02-25T12:36:25.432Z,-1.26
2018-02-25T12:37:31.615Z,-1.24
2018-02-25T12:38:38.498Z,-1.23
2018-02-25T12:39:44.927Z,-1.26
2018-02-25T12:40:51.222Z,-1.47
2018-02-25T12:41:57.585Z,-1.58
2018-02-25T12:43:03.474Z,-1.56
2018-02-25T12:44:09.865Z,-1.58
2018-02-25T12:45:16.212Z,-1.58
2018-02-25T12:46:22.577Z,-1.57
2018-02-25T12:47:29.942Z,-1.53
2018-02-25T12:48:35.847Z,-1.41
2018-02-25T12:49:42.206Z,-1.27
2018-02-25T12:50:48.570Z,-1.19
2018-02-25T12:51:54.474Z,-1.22
2018-02-25T12:53:01.348Z,-1.19
2018-02-25T12:54:07.750Z,-1.13
2018-02-25T12:55:13.624Z,-1.05
2018-02-25T12:56:20.523Z,-1.08
2018-02-25T12:57:26.387Z,-1.16
2018-02-25T12:58:33.276Z,-1.17
2018-02-25T12:59:39.189Z,-1.13
2018-02-25T13:00:45.545Z,-1.06
2018-02-25T13:01:51.938Z,-1.06
2018-02-25T13:02:58.334Z,-1.02
2018-02-25T13:04:05.238Z,-1.07
2018-02-25T13:05:11.133Z,-1.06
2018-02-25T13:06:19.023Z,-1.04
2018-02-25T13:07:24.404Z,-1.03
2018-02-25T13:08:30.818Z,-0.99
2018-02-25T13:09:36.745Z,-0.95
2018-02-25T13:10:43.127Z,-0.98
2018-02-25T13:11:50.028Z,-0.95
2018-02-25T13:12:57.455Z,-0.86
2018-02-25T13:14:02.389Z,-0.88
2018-02-25T13:15:08.818Z,-0.87
2018-02-25T13:16:15.205Z,-0.95
2018-02-25T13:17:21.603Z,-1.02
2018-02-25T13:18:28.019Z,-1.04
2018-02-25T13:19:34.452Z,-0.91
2018-02-25T13:20:41.845Z,-0.88
2018-02-25T13:21:48.266Z,-0.81
2018-02-25T13:22:53.696Z,-0.87
2018-02-25T13:24:00.636Z,-0.77
2018-02-25T13:25:06.612Z,-0.80
2018-02-25T13:26:13.043Z,-0.76
2018-02-25T13:27:19.494Z,-0.83
2018-02-25T13:28:25.938Z,-0.80
2018-02-25T13:29:32.400Z,-0.84
2018-02-25T13:30:38.883Z,-0.87
2018-02-25T13:31:45.341Z,-0.82
2018-02-25T13:32:52.288Z,-0.76
2018-02-25T13:33:58.281Z,-0.81
2018-02-25T13:35:04.768Z,-0.84
2018-02-25T13:36:11.207Z,-0.75
2018-02-25T13:37:17.682Z,-0.61
2018-02-25T13:38:24.342Z,-0.57
2018-02-25T13:39:31.125Z,-0.56
2018-02-25T13:40:37.110Z,-0.68
2018-02-25T13:41:43.557Z,-0.72
2018-02-25T13:42:50.033Z,-0.65
2018-02-25T13:43:56.469Z,-0.58
2018-02-25T13:45:03.451Z,-0.44
2018-02-25T13:46:09.931Z,-0.48
2018-02-25T13:47:15.895Z,-0.50
2018-02-25T13:48:22.345Z,-0.52
2018-02-25T13:49:28.803Z,-0.64
2018-02-25T13:50:35.262Z,-0.58
2018-02-25T13:51:41.686Z,-0.58
2018-02-25T13:52:48.623Z,-0.56
2018-02-25T13:53:54.564Z,-0.60
2018-02-25T13:55:00.994Z,-0.58
2018-02-25T13:56:07.964Z,-0.56
2018-02-25T13:57:13.880Z,-0.50
2018-02-25T13:58:20.781Z,-0.43
2018-02-25T13:59:26.727Z,-0.39
2018-02-25T14:00:33.195Z,-0.29
2018-02-25T14:01:40.099Z,-0.23
2018-02-25T14:02:46.514Z,-0.10
2018-02-25T14:03:52.454Z,-0.11
2018-02-25T14:04:58.896Z,-0.14
2018-02-25T14:06:05.865Z,-0.20
2018-02-25T14:07:11.764Z,-0.26
2018-02-25T14:08:18.200Z,-0.35
2018-02-25T14:09:24.641Z,-0.37